createdAt,value
2022-10-02T00:01:19.801Z,15.43
2022-10-02T00:03:47.230Z,15.63
2022-10-02T00:06:21.972Z,13.00
2022-10-02T00:08:50.903Z,13.38
2022-10-02T00:11:23.097Z,11.88
2022-10-02T00:13:53.011Z,12.32
2022-10-02T00:16:24.615Z,12.60
2022-10-02T00:18:54.347Z,12.98
2022-10-02T00:21:32.995Z,12.85
2022-10-02T00:24:04.143Z,12.23
2022-10-02T00:29:08.122Z,13.32
2022-10-02T00:31:47.426Z,12.05
2022-10-02T00:34:33.502Z,11.90
2022-10-02T00:37:06.691Z,13.05
2022-10-02T00:39:49.011Z,11.88
2022-10-02T00:42:34.630Z,9.98
2022-10-02T00:45:04.968Z,13.77
2022-10-02T00:47:39.553Z,12.73
2022-10-02T00:50:18.182Z,11.35
2022-10-02T00:52:48.363Z,11.07
2022-10-02T00:55:34.059Z,10.68
2022-10-02T00:58:12.795Z,12.15
2022-10-02T01:00:40.899Z,10.23
2022-10-02T01:03:17.000Z,10.70
2022-10-02T01:05:44.398Z,11.35
2022-10-02T01:08:11.586Z,10.95
2022-10-02T01:10:38.779Z,10.27
2022-10-02T01:13:06.512Z,9.77
2022-10-02T01:15:35.547Z,8.70
2022-10-02T01:18:03.076Z,10.55
2022-10-02T01:20:38.525Z,8.52
2022-10-02T01:23:05.651Z,9.07
2022-10-02T01:25:33.005Z,9.85
2022-10-02T01:28:00.322Z,10.68
2022-10-02T01:30:28.552Z,13.07
2022-10-02T01:32:59.304Z,10.00
2022-10-02T01:35:34.620Z,12.88
2022-10-02T01:38:03.418Z,8.63
2022-10-02T01:40:32.154Z,10.68
2022-10-02T01:43:06.327Z,8.52
2022-10-02T01:45:53.840Z,11.68
2022-10-02T01:48:33.401Z,7.90
2022-10-02T01:51:20.586Z,10.88
2022-10-02T01:53:51.296Z,8.82
2022-10-02T01:56:33.366Z,8.30
2022-10-02T01:59:06.747Z,9.25
2022-10-02T02:01:33.954Z,8.38
2022-10-02T02:04:04.742Z,11.20
2022-10-02T02:06:42.207Z,10.15
2022-10-02T02:09:09.796Z,6.85
2022-10-02T02:11:40.144Z,8.48
2022-10-02T02:14:11.420Z,7.90
2022-10-02T02:16:43.312Z,9.32
2022-10-02T02:19:13.663Z,9.25
2022-10-02T02:21:41.063Z,8.50
2022-10-02T02:24:14.798Z,5.95
2022-10-02T02:26:44.366Z,9.05
2022-10-02T02:29:12.650Z,6.30
2022-10-02T02:31:44.635Z,8.18
2022-10-02T02:34:14.113Z,7.88
2022-10-02T02:36:43.366Z,9.07
2022-10-02T02:39:13.605Z,8.35
2022-10-02T02:41:48.287Z,7.53
2022-10-02T02:44:19.725Z,9.68
2022-10-02T02:47:04.708Z,11.18
2022-10-02T02:49:35.942Z,8.00
2022-10-02T02:52:04.498Z,10.20
2022-10-02T02:54:35.234Z,9.50
2022-10-02T02:57:05.067Z,8.93
2022-10-02T02:59:33.141Z,10.52
2022-10-02T03:02:00.460Z,9.15
2022-10-02T03:04:27.742Z,9.57
2022-10-02T03:06:59.395Z,9.40
2022-10-02T03:09:27.294Z,10.77
2022-10-02T03:12:03.687Z,8.95
2022-10-02T03:14:57.223Z,7.50
2022-10-02T03:17:43.071Z,8.93
2022-10-02T03:20:23.228Z,6.53
2022-10-02T03:23:13.772Z,8.23
2022-10-02T03:25:43.847Z,7.00
2022-10-02T03:28:14.499Z,10.18
2022-10-02T03:30:42.242Z,7.47
2022-10-02T03:33:10.133Z,8.18
2022-10-02T03:35:38.522Z,9.07
2022-10-02T03:38:07.856Z,8.75
2022-10-02T03:40:34.990Z,7.88
2022-10-02T03:43:02.421Z,6.35
2022-10-02T03:48:18.014Z,8.57
2022-10-02T03:50:45.326Z,7.78
2022-10-02T03:53:16.250Z,8.80
2022-10-02T03:55:49.071Z,9.73
2022-10-02T03:58:17.933Z,7.50
2022-10-02T04:00:54.436Z,10.43
2022-10-02T04:03:25.867Z,9.52
2022-10-02T04:06:00.054Z,7.65
2022-10-02T04:08:32.429Z,9.07
2022-10-02T04:11:16.846Z,8.27
2022-10-02T04:13:49.302Z,8.60
2022-10-02T04:16:19.605Z,7.72
2022-10-02T04:18:52.729Z,10.27
2022-10-02T04:21:23.123Z,9.35
2022-10-02T04:23:52.992Z,11.48
2022-10-02T04:26:31.487Z,10.85
2022-10-02T04:29:02.185Z,8.82
2022-10-02T04:31:29.375Z,10.73
2022-10-02T04:33:59.554Z,11.73
2022-10-02T04:36:29.498Z,11.88
2022-10-02T04:39:02.218Z,11.57
2022-10-02T04:41:47.925Z,9.68
2022-10-02T04:44:33.636Z,11.82
2022-10-02T04:47:06.501Z,10.73
2022-10-02T04:49:45.819Z,11.85
2022-10-02T04:52:24.958Z,10.65
2022-10-02T04:54:55.239Z,11.82
2022-10-02T04:57:22.349Z,11.50
2022-10-02T05:00:01.895Z,12.27
2022-10-02T05:02:29.097Z,10.27
2022-10-02T05:05:14.887Z,16.98
2022-10-02T05:07:42.118Z,12.10
2022-10-02T05:10:09.259Z,13.32
2022-10-02T05:12:51.870Z,12.63
2022-10-02T05:15:21.792Z,14.05
2022-10-02T05:18:18.015Z,12.63
2022-10-02T05:20:53.044Z,18.67
2022-10-02T05:23:23.424Z,13.82
2022-10-02T05:25:56.297Z,15.57
2022-10-02T05:28:26.401Z,14.10
2022-10-02T05:31:18.025Z,13.90
2022-10-02T05:34:04.114Z,12.80
2022-10-02T05:36:37.894Z,13.55
2022-10-02T05:39:10.038Z,14.02
2022-10-02T05:41:37.168Z,21.10
2022-10-02T05:44:10.779Z,18.45
2022-10-02T05:46:42.916Z,19.85
2022-10-02T05:49:21.034Z,13.70
2022-10-02T05:52:06.062Z,14.35
2022-10-02T05:54:52.543Z,16.27
2022-10-02T05:57:31.825Z,15.27
2022-10-02T06:00:02.112Z,15.95
2022-10-02T06:02:29.446Z,18.17
2022-10-02T06:05:01.498Z,17.92
2022-10-02T06:07:29.855Z,16.85
2022-10-02T06:10:11.552Z,16.92
2022-10-02T06:12:45.268Z,20.48
2022-10-02T06:15:15.889Z,17.90
2022-10-02T06:17:47.468Z,18.27
2022-10-02T06:20:23.302Z,17.48
2022-10-02T06:23:00.610Z,22.80
2022-10-02T06:25:30.335Z,18.48
2022-10-02T06:28:00.843Z,19.67
2022-10-02T06:30:31.255Z,20.35
2022-10-02T06:32:58.386Z,16.77
2022-10-02T06:35:35.624Z,22.73
2022-10-02T06:38:19.235Z,20.42
2022-10-02T06:40:51.683Z,19.95
2022-10-02T06:43:24.705Z,20.33
2022-10-02T06:46:14.763Z,18.23
2022-10-02T06:48:46.208Z,18.95
2022-10-02T06:51:33.164Z,16.63
2022-10-02T06:54:03.455Z,19.13
2022-10-02T06:56:33.548Z,18.10
2022-10-02T06:59:11.943Z,19.08
2022-10-02T07:01:48.226Z,21.90
2022-10-02T07:04:25.829Z,21.58
2022-10-02T07:06:53.126Z,19.83
2022-10-02T07:09:20.293Z,18.00
2022-10-02T07:11:50.174Z,22.25
2022-10-02T07:14:36.195Z,19.85
2022-10-02T07:17:06.322Z,21.23
2022-10-02T07:19:57.796Z,23.67
2022-10-02T07:22:44.873Z,18.08
2022-10-02T07:25:31.272Z,19.88
2022-10-02T07:28:07.081Z,17.52
2022-10-02T07:30:41.432Z,16.63
2022-10-02T07:33:15.996Z,16.77
2022-10-02T07:35:46.339Z,19.55
2022-10-02T07:38:13.501Z,20.00
2022-10-02T07:40:44.026Z,17.98
2022-10-02T07:43:29.843Z,18.52
2022-10-02T07:46:01.106Z,17.75
2022-10-02T07:48:40.695Z,18.38
2022-10-02T07:51:27.833Z,20.75
2022-10-02T07:54:03.206Z,21.05
2022-10-02T07:56:31.325Z,18.50
2022-10-02T07:59:00.969Z,20.45
2022-10-02T08:01:32.322Z,20.08
2022-10-02T08:04:01.478Z,20.58
2022-10-02T08:06:28.631Z,20.45
2022-10-02T08:09:22.494Z,20.83
2022-10-02T08:11:51.711Z,21.55
2022-10-02T08:14:19.107Z,24.80
2022-10-02T08:16:46.730Z,21.67
2022-10-02T08:19:16.689Z,22.85
2022-10-02T08:21:50.011Z,22.27
2022-10-02T08:24:22.290Z,21.45
2022-10-02T08:27:05.371Z,20.27
2022-10-02T08:29:40.378Z,18.00
2022-10-02T08:32:14.162Z,14.65
2022-10-02T08:34:42.357Z,15.15
2022-10-02T08:37:15.387Z,16.23
2022-10-02T08:40:01.602Z,16.20
2022-10-02T08:42:31.553Z,15.32
2022-10-02T08:44:58.673Z,14.25
2022-10-02T08:47:44.174Z,12.13
2022-10-02T08:50:30.231Z,12.23
2022-10-02T08:53:16.380Z,11.23
2022-10-02T08:56:04.047Z,12.48
2022-10-02T08:58:37.094Z,12.10
2022-10-02T09:01:10.536Z,11.10
2022-10-02T09:03:56.663Z,9.93
2022-10-02T09:06:30.592Z,7.93
2022-10-02T09:09:17.019Z,7.80
2022-10-02T09:12:11.594Z,8.38
2022-10-02T09:14:55.585Z,8.43
2022-10-02T09:17:45.324Z,7.03
2022-10-02T09:20:24.897Z,7.35
2022-10-02T09:23:12.018Z,8.50
2022-10-02T09:25:39.264Z,7.05
2022-10-02T09:28:25.215Z,6.20
2022-10-02T09:31:10.971Z,6.95
2022-10-02T09:33:50.338Z,6.10
2022-10-02T09:36:36.454Z,4.20
2022-10-02T09:39:12.884Z,4.47
2022-10-02T09:42:00.894Z,4.55
2022-10-02T09:44:34.204Z,3.30
2022-10-02T09:47:11.176Z,4.05
2022-10-02T09:49:43.828Z,5.40
2022-10-02T09:52:17.149Z,3.92
2022-10-02T09:55:02.869Z,4.57
2022-10-02T09:57:39.438Z,3.35
2022-10-02T10:00:11.295Z,4.05
2022-10-02T10:02:38.511Z,4.72
2022-10-02T10:05:09.292Z,4.15
2022-10-02T10:07:42.156Z,5.68
2022-10-02T10:10:28.294Z,3.20
2022-10-02T10:12:58.585Z,2.90
2022-10-02T10:15:40.912Z,2.90
2022-10-02T10:18:10.842Z,3.63
2022-10-02T10:20:56.239Z,2.90
2022-10-02T10:23:26.230Z,2.92
2022-10-02T10:26:15.163Z,2.90
2022-10-02T10:29:07.629Z,2.47
2022-10-02T10:32:08.690Z,3.78
2022-10-02T10:34:38.642Z,3.60
2022-10-02T10:37:47.478Z,4.45
2022-10-02T10:40:26.362Z,3.10
2022-10-02T10:43:16.538Z,4.80
2022-10-02T10:46:03.901Z,4.00
2022-10-02T10:48:31.213Z,2.40
2022-10-02T10:51:02.492Z,3.35
2022-10-02T10:53:29.613Z,1.70
2022-10-02T10:56:07.355Z,2.40
2022-10-02T10:58:47.857Z,2.13
2022-10-02T11:01:18.912Z,2.47
2022-10-02T11:06:45.971Z,1.70
2022-10-02T11:09:13.394Z,2.38
2022-10-02T11:11:59.476Z,3.35
2022-10-02T11:14:26.774Z,2.47
2022-10-02T11:16:59.835Z,2.05
2022-10-02T11:19:44.375Z,3.75
2022-10-02T11:22:26.773Z,2.00
2022-10-02T11:25:13.289Z,3.60
2022-10-02T11:27:50.226Z,1.85
2022-10-02T11:30:24.963Z,2.42
2022-10-02T11:33:08.966Z,2.13
2022-10-02T11:35:55.306Z,2.10
2022-10-02T11:38:48.038Z,2.53
2022-10-02T11:41:44.454Z,3.42
2022-10-02T11:44:29.098Z,2.15
2022-10-02T11:46:56.235Z,2.40
2022-10-02T11:49:34.494Z,2.63
2022-10-02T11:52:08.836Z,3.33
2022-10-02T11:54:46.171Z,1.88
2022-10-02T11:57:16.321Z,3.67
2022-10-02T11:59:46.402Z,3.38
2022-10-02T12:02:23.604Z,2.15
2022-10-02T12:05:09.852Z,2.35
2022-10-02T12:07:45.334Z,2.63
2022-10-02T12:10:21.656Z,2.97
2022-10-02T12:13:04.505Z,3.78
2022-10-02T12:15:47.238Z,1.70
2022-10-02T12:18:49.606Z,2.15
2022-10-02T12:21:38.481Z,1.95
2022-10-02T12:24:32.551Z,4.53
2022-10-02T12:26:59.808Z,2.38
2022-10-02T12:29:45.770Z,3.20
2022-10-02T12:32:36.394Z,1.60
2022-10-02T12:35:03.533Z,1.30
2022-10-02T12:37:33.577Z,2.38
2022-10-02T12:40:07.056Z,1.38
2022-10-02T12:42:54.981Z,3.00
2022-10-02T12:45:22.172Z,1.88
2022-10-02T12:47:49.325Z,2.10
2022-10-02T12:50:39.867Z,2.83
2022-10-02T12:53:25.449Z,4.10
2022-10-02T12:56:19.224Z,2.20
2022-10-02T12:58:50.024Z,1.77
2022-10-02T13:01:20.358Z,2.70
2022-10-02T13:03:59.637Z,1.40
2022-10-02T13:06:46.724Z,1.98
2022-10-02T13:09:16.729Z,1.77
2022-10-02T13:11:56.180Z,1.95
2022-10-02T13:14:33.215Z,1.77
2022-10-02T13:17:10.355Z,1.58
2022-10-02T13:19:44.023Z,1.40
2022-10-02T13:22:31.493Z,0.75
2022-10-02T13:25:17.107Z,2.22
2022-10-02T13:27:44.494Z,1.52
2022-10-02T13:30:21.995Z,1.63
2022-10-02T13:32:55.380Z,3.70
2022-10-02T13:35:41.255Z,2.10
2022-10-02T13:38:15.808Z,3.13
2022-10-02T13:41:03.287Z,2.28
2022-10-02T13:43:42.417Z,1.50
2022-10-02T13:46:29.610Z,1.60
2022-10-02T13:49:21.847Z,1.67
2022-10-02T13:51:48.980Z,1.02
2022-10-02T13:54:31.299Z,1.35
2022-10-02T13:56:58.429Z,1.95
2022-10-02T13:59:29.068Z,1.73
2022-10-02T14:02:11.522Z,1.90
2022-10-02T14:04:39.033Z,3.03
2022-10-02T14:07:23.436Z,2.72
2022-10-02T14:09:56.838Z,1.92
2022-10-02T14:12:53.754Z,2.90
2022-10-02T14:15:21.118Z,2.08
2022-10-02T14:18:07.165Z,2.30
2022-10-02T14:20:34.462Z,1.75
2022-10-02T14:23:29.518Z,1.88
2022-10-02T14:25:56.669Z,0.90
2022-10-02T14:28:39.242Z,2.92
2022-10-02T14:31:24.941Z,0.90
2022-10-02T14:34:11.847Z,1.80
2022-10-02T14:36:50.567Z,1.15
2022-10-02T14:39:17.756Z,1.88
2022-10-02T14:42:05.135Z,1.13
2022-10-02T14:45:04.992Z,1.05
2022-10-02T14:47:50.943Z,1.40
2022-10-02T14:50:25.384Z,2.08
2022-10-02T14:53:07.571Z,2.25
2022-10-02T14:55:46.847Z,3.05
2022-10-02T14:58:43.439Z,0.85
2022-10-02T15:01:10.845Z,1.55
2022-10-02T15:03:56.668Z,1.05
2022-10-02T15:06:44.174Z,3.33
2022-10-02T15:09:17.082Z,2.00
2022-10-02T15:11:44.743Z,1.65
2022-10-02T15:14:20.498Z,1.85
2022-10-02T15:17:07.780Z,3.53
2022-10-02T15:19:49.767Z,1.45
2022-10-02T15:22:22.319Z,1.73
2022-10-02T15:24:55.579Z,2.38
2022-10-02T15:27:23.169Z,1.65
2022-10-02T15:29:55.042Z,3.00
2022-10-02T15:32:22.163Z,1.67
2022-10-02T15:35:09.703Z,2.42
2022-10-02T15:37:55.896Z,1.63
2022-10-02T15:40:26.057Z,3.33
2022-10-02T15:42:58.527Z,2.75
2022-10-02T15:45:44.781Z,2.22
2022-10-02T15:48:11.952Z,1.65
2022-10-02T15:50:45.408Z,2.08
2022-10-02T15:53:24.606Z,3.30
2022-10-02T15:55:56.282Z,2.53
2022-10-02T15:58:40.612Z,2.35
2022-10-02T16:01:15.746Z,2.38
2022-10-02T16:03:46.067Z,2.10
2022-10-02T16:06:25.133Z,2.40
2022-10-02T16:09:02.941Z,3.22
2022-10-02T16:11:48.421Z,2.42
2022-10-02T16:14:22.715Z,2.70
2022-10-02T16:16:59.202Z,2.80
2022-10-02T16:19:48.326Z,1.95
2022-10-02T16:22:17.897Z,2.28
2022-10-02T16:24:55.174Z,2.97
2022-10-02T16:27:48.133Z,2.25
2022-10-02T16:30:16.487Z,3.00
2022-10-02T16:33:01.884Z,3.97
2022-10-02T16:35:43.706Z,1.83
2022-10-02T16:38:20.490Z,2.22
2022-10-02T16:41:13.640Z,2.10
2022-10-02T16:44:06.892Z,2.40
2022-10-02T16:46:52.670Z,3.03
2022-10-02T16:49:32.857Z,2.10
2022-10-02T16:52:18.711Z,3.05
2022-10-02T16:55:00.688Z,4.18
2022-10-02T16:57:37.992Z,3.67
2022-10-02T17:00:08.473Z,2.20
2022-10-02T17:02:38.498Z,3.08
2022-10-02T17:05:25.164Z,2.47
2022-10-02T17:07:55.429Z,1.95
2022-10-02T17:10:40.911Z,2.88
2022-10-02T17:13:08.063Z,3.47
2022-10-02T17:15:39.836Z,3.15
2022-10-02T17:18:14.319Z,2.33
2022-10-02T17:20:44.677Z,1.67
2022-10-02T17:23:24.198Z,2.50
2022-10-02T17:26:09.919Z,3.33
2022-10-02T17:28:42.591Z,2.35
2022-10-02T17:31:29.794Z,1.83
2022-10-02T17:33:58.230Z,2.28
2022-10-02T17:36:32.284Z,3.38
2022-10-02T17:39:14.874Z,2.58
2022-10-02T17:41:42.513Z,2.15
2022-10-02T17:44:24.208Z,1.45
2022-10-02T17:46:51.432Z,1.95
2022-10-02T17:49:31.017Z,2.42
2022-10-02T17:52:20.930Z,3.05
2022-10-02T17:55:20.800Z,2.63
2022-10-02T17:57:58.966Z,2.00
2022-10-02T18:00:26.619Z,1.92
2022-10-02T18:03:12.154Z,2.63
2022-10-02T18:05:57.243Z,2.13
2022-10-02T18:08:34.525Z,1.85
2022-10-02T18:11:20.702Z,2.88
2022-10-02T18:13:50.880Z,2.35
2022-10-02T18:16:31.472Z,2.00
2022-10-02T18:18:58.682Z,2.10
2022-10-02T18:21:29.010Z,2.30
2022-10-02T18:24:05.129Z,3.50
2022-10-02T18:26:44.668Z,2.60
2022-10-02T18:29:27.014Z,2.13
2022-10-02T18:32:17.295Z,3.20
2022-10-02T18:34:47.633Z,2.08
2022-10-02T18:37:24.987Z,2.75
2022-10-02T18:39:52.243Z,2.40
2022-10-02T18:42:40.028Z,2.08
2022-10-02T18:45:32.017Z,2.75
2022-10-02T18:48:02.725Z,2.50
2022-10-02T18:50:48.138Z,1.83
2022-10-02T18:53:25.470Z,2.58
2022-10-02T18:56:09.425Z,3.92
2022-10-02T18:58:52.137Z,2.75
2022-10-02T19:01:38.368Z,2.55
2022-10-02T19:04:06.488Z,3.28
2022-10-02T19:06:35.642Z,2.10
2022-10-02T19:09:03.731Z,2.47
2022-10-02T19:11:32.510Z,3.25
2022-10-02T19:14:02.243Z,2.42
2022-10-02T19:16:31.358Z,4.57
2022-10-02T19:19:12.000Z,2.55
2022-10-02T19:21:39.775Z,2.55
2022-10-02T19:24:08.822Z,2.78
2022-10-02T19:26:42.134Z,2.00
2022-10-02T19:29:23.536Z,2.10
2022-10-02T19:34:20.911Z,1.70
2022-10-02T19:36:50.488Z,3.55
2022-10-02T19:39:20.133Z,2.58
2022-10-02T19:41:47.966Z,2.97
2022-10-02T19:44:25.016Z,2.03
2022-10-02T19:46:53.416Z,1.92
2022-10-02T19:49:23.560Z,2.00
2022-10-02T19:51:52.981Z,2.45
2022-10-02T19:54:23.034Z,3.20
2022-10-02T19:56:52.878Z,3.05
2022-10-02T19:59:28.547Z,2.88
2022-10-02T20:01:57.635Z,2.65
2022-10-02T20:04:30.160Z,3.17
2022-10-02T20:06:59.239Z,3.10
2022-10-02T20:09:38.566Z,2.80
2022-10-02T20:12:10.507Z,3.55
2022-10-02T20:14:37.634Z,3.42
2022-10-02T20:17:11.169Z,2.28
2022-10-02T20:19:41.523Z,2.78
2022-10-02T20:22:14.389Z,2.23
2022-10-02T20:25:10.877Z,2.40
2022-10-02T20:27:42.137Z,2.38
2022-10-02T20:32:39.596Z,2.38
2022-10-02T20:35:19.749Z,2.55
2022-10-02T20:37:48.006Z,2.10
2022-10-02T20:40:23.895Z,2.97
2022-10-02T20:42:51.130Z,5.15
2022-10-02T20:45:18.377Z,2.55
2022-10-02T20:47:48.396Z,4.13
2022-10-02T20:50:21.372Z,2.90
2022-10-02T20:52:49.166Z,2.30
2022-10-02T20:55:35.440Z,2.70
2022-10-02T20:58:05.510Z,4.45
2022-10-02T21:00:46.074Z,2.20
2022-10-02T21:03:32.080Z,4.35
2022-10-02T21:06:18.141Z,2.65
2022-10-02T21:09:04.105Z,2.92
2022-10-02T21:11:56.464Z,3.13
2022-10-02T21:14:29.911Z,2.03
2022-10-02T21:17:15.787Z,3.42
2022-10-02T21:20:01.267Z,3.15
2022-10-02T21:22:28.424Z,2.95
2022-10-02T21:25:02.990Z,2.95
2022-10-02T21:27:33.168Z,2.70
2022-10-02T21:30:19.243Z,3.92
2022-10-02T21:32:46.369Z,2.38
2022-10-02T21:35:25.589Z,2.45
2022-10-02T21:38:16.034Z,3.13
2022-10-02T21:40:43.300Z,3.35
2022-10-02T21:43:31.076Z,2.67
2022-10-02T21:46:04.860Z,3.40
2022-10-02T21:48:32.000Z,3.58
2022-10-02T21:51:18.028Z,2.95
2022-10-02T21:54:04.902Z,4.43
2022-10-02T21:56:52.575Z,3.22
2022-10-02T21:59:20.379Z,4.80
2022-10-02T22:02:08.254Z,7.90
2022-10-02T22:04:48.693Z,4.05
2022-10-02T22:07:24.988Z,3.47
2022-10-02T22:09:57.709Z,3.70
2022-10-02T22:12:43.458Z,4.60
2022-10-02T22:15:25.872Z,4.28
2022-10-02T22:17:59.082Z,3.38
2022-10-02T22:20:26.249Z,3.80
2022-10-02T22:23:00.899Z,3.15
2022-10-02T22:25:37.167Z,3.38
2022-10-02T22:28:13.441Z,3.28
2022-10-02T22:30:59.890Z,2.80
2022-10-02T22:33:27.235Z,3.42
2022-10-02T22:36:00.319Z,2.75
2022-10-02T22:38:46.285Z,3.13
2022-10-02T22:41:16.451Z,4.43
2022-10-02T22:43:43.566Z,3.17
2022-10-02T22:46:29.914Z,3.05
2022-10-02T22:49:01.867Z,3.63
2022-10-02T22:51:38.815Z,4.00
2022-10-02T22:54:32.470Z,3.47
2022-10-02T22:57:03.585Z,3.35
2022-10-02T22:59:38.780Z,3.38
2022-10-02T23:02:10.753Z,3.20
2022-10-02T23:04:40.686Z,4.88
2022-10-02T23:07:13.147Z,2.80
2022-10-02T23:09:44.345Z,2.80
2022-10-02T23:12:11.780Z,3.25
2022-10-02T23:14:52.306Z,3.28
2022-10-02T23:17:23.957Z,3.15
2022-10-02T23:19:55.853Z,4.07
2022-10-02T23:22:29.221Z,4.28
2022-10-02T23:25:09.886Z,4.32
2022-10-02T23:27:36.996Z,4.32
2022-10-02T23:30:06.107Z,3.83
2022-10-02T23:32:52.058Z,3.45
2022-10-02T23:35:37.901Z,3.75
2022-10-02T23:38:27.730Z,4.38
2022-10-02T23:41:32.608Z,4.18
2022-10-02T23:44:02.637Z,3.75
2022-10-02T23:46:34.250Z,4.30
2022-10-02T23:49:02.769Z,6.28
2022-10-02T23:51:40.120Z,5.45
2022-10-02T23:54:13.365Z,5.28
2022-10-02T23:56:40.543Z,4.25
2022-10-02T23:59:07.701Z,4.43
